createdAt,value
2022-09-13T00:14:33.190Z,2.28
2022-09-13T00:17:19.024Z,2.50
2022-09-13T00:20:05.783Z,1.98
2022-09-13T00:22:52.061Z,2.65
2022-09-13T00:25:38.617Z,2.05
2022-09-13T00:31:11.501Z,2.30
2022-09-13T00:34:00.016Z,2.00
2022-09-13T00:36:46.435Z,2.20
2022-09-13T00:39:33.221Z,2.12
2022-09-13T00:42:28.770Z,1.80
2022-09-13T00:45:18.635Z,2.28
2022-09-13T00:48:06.793Z,2.10
2022-09-13T00:50:55.566Z,2.00
2022-09-13T00:53:44.364Z,1.87
2022-09-13T00:56:36.818Z,2.15
2022-09-13T00:59:26.840Z,2.10
2022-09-13T01:02:13.779Z,1.90
2022-09-13T01:04:59.951Z,2.28
2022-09-13T01:07:46.316Z,2.22
2022-09-13T01:10:36.040Z,2.30
2022-09-13T01:13:24.219Z,2.17
2022-09-13T01:16:10.595Z,2.10
2022-09-13T01:18:56.998Z,2.17
2022-09-13T01:22:25.132Z,2.17
2022-09-13T01:25:17.222Z,1.87
2022-09-13T01:28:31.337Z,2.08
2022-09-13T01:31:54.650Z,2.17
2022-09-13T01:35:19.405Z,1.90
2022-09-13T01:38:11.386Z,2.30
2022-09-13T01:41:13.289Z,2.60
2022-09-13T01:44:35.683Z,2.30
2022-09-13T01:47:49.857Z,2.20
2022-09-13T01:50:46.730Z,1.90
2022-09-13T01:53:53.996Z,2.08
2022-09-13T01:56:45.453Z,2.20
2022-09-13T01:59:47.331Z,1.70
2022-09-13T02:02:42.311Z,2.00
2022-09-13T02:06:08.241Z,2.17
2022-09-13T02:08:57.372Z,2.20
2022-09-13T02:11:46.236Z,2.45
2022-09-13T02:14:36.213Z,2.22
2022-09-13T02:17:25.109Z,2.00
2022-09-13T02:20:24.898Z,1.70
2022-09-13T02:23:17.030Z,1.83
2022-09-13T02:26:05.107Z,2.10
2022-09-13T02:28:53.345Z,2.40
2022-09-13T02:31:58.506Z,2.10
2022-09-13T02:34:58.620Z,1.90
2022-09-13T02:37:48.806Z,2.20
2022-09-13T02:40:40.597Z,2.30
2022-09-13T02:43:31.645Z,2.40
2022-09-13T02:49:39.251Z,2.45
2022-09-13T02:52:37.407Z,1.87
2022-09-13T02:56:02.585Z,2.20
2022-09-13T02:59:17.327Z,2.20
2022-09-13T03:02:25.476Z,2.08
2022-09-13T03:05:11.644Z,1.98
2022-09-13T03:07:58.767Z,2.03
2022-09-13T03:11:05.366Z,2.10
2022-09-13T03:14:28.203Z,2.30
2022-09-13T03:17:25.652Z,2.50
2022-09-13T03:20:40.602Z,2.47
2022-09-13T03:23:41.878Z,2.50
2022-09-13T03:26:44.759Z,3.10
2022-09-13T03:29:52.559Z,3.67
2022-09-13T03:32:58.741Z,3.20
2022-09-13T03:35:52.161Z,2.97
2022-09-13T03:39:14.861Z,2.33
2022-09-13T03:42:05.497Z,2.50
2022-09-13T03:44:53.781Z,2.60
2022-09-13T03:47:42.759Z,2.80
2022-09-13T03:50:29.004Z,2.90
2022-09-13T03:53:20.435Z,3.22
2022-09-13T03:56:17.178Z,2.50
2022-09-13T03:59:03.348Z,3.33
2022-09-13T04:01:49.234Z,3.28
2022-09-13T04:04:35.772Z,3.10
2022-09-13T04:07:23.794Z,2.85
2022-09-13T04:10:13.542Z,2.60
2022-09-13T04:13:00.442Z,2.60
2022-09-13T04:15:46.791Z,2.65
2022-09-13T04:18:33.054Z,2.25
2022-09-13T04:21:19.770Z,2.72
2022-09-13T04:24:05.713Z,2.97
2022-09-13T04:26:53.261Z,2.70
2022-09-13T04:29:39.428Z,2.80
2022-09-13T04:32:25.928Z,2.95
2022-09-13T04:35:11.906Z,2.97
2022-09-13T04:37:58.339Z,2.80
2022-09-13T04:40:44.149Z,3.60
2022-09-13T04:43:30.595Z,3.00
2022-09-13T04:46:17.567Z,3.25
2022-09-13T04:49:04.105Z,3.17
2022-09-13T04:51:50.189Z,3.00
2022-09-13T04:54:36.795Z,3.55
2022-09-13T04:57:22.811Z,3.30
2022-09-13T05:00:09.985Z,3.08
2022-09-13T05:02:56.671Z,3.03
2022-09-13T05:05:43.211Z,3.25
2022-09-13T05:08:29.829Z,3.47
2022-09-13T05:11:16.480Z,3.33
2022-09-13T05:14:02.462Z,3.28
2022-09-13T05:16:48.606Z,3.12
2022-09-13T05:19:35.264Z,2.70
2022-09-13T05:22:21.662Z,3.05
2022-09-13T05:25:08.165Z,2.90
2022-09-13T05:27:54.406Z,2.75
2022-09-13T05:30:42.326Z,2.80
2022-09-13T05:33:31.195Z,3.28
2022-09-13T05:36:17.705Z,3.28
2022-09-13T05:39:34.091Z,3.08
2022-09-13T05:42:11.373Z,3.00
2022-09-13T05:44:57.763Z,3.50
2022-09-13T05:47:44.126Z,2.97
2022-09-13T05:50:56.816Z,2.87
2022-09-13T05:53:40.958Z,3.10
2022-09-13T05:56:30.005Z,3.30
2022-09-13T05:59:16.172Z,3.45
2022-09-13T06:02:02.686Z,4.40
2022-09-13T06:04:50.805Z,2.95
2022-09-13T06:07:39.212Z,3.03
2022-09-13T06:10:25.838Z,3.45
2022-09-13T06:13:11.684Z,3.15
2022-09-13T06:16:00.008Z,2.83
2022-09-13T06:18:45.936Z,2.50
2022-09-13T06:21:32.568Z,2.58
2022-09-13T06:24:18.746Z,2.60
2022-09-13T06:27:05.929Z,2.62
2022-09-13T06:29:51.907Z,2.55
2022-09-13T06:32:38.122Z,2.50
2022-09-13T06:35:24.136Z,2.33
2022-09-13T06:38:10.196Z,2.30
2022-09-13T06:41:10.667Z,2.62
2022-09-13T06:43:59.024Z,2.33
2022-09-13T06:46:45.147Z,1.95
2022-09-13T06:49:31.706Z,2.75
2022-09-13T06:52:18.202Z,2.00
2022-09-13T06:55:04.625Z,2.00
2022-09-13T06:57:50.610Z,1.90
2022-09-13T07:00:37.125Z,1.75
2022-09-13T07:03:23.260Z,1.70
2022-09-13T07:06:24.015Z,2.42
2022-09-13T07:09:16.088Z,1.77
2022-09-13T07:12:02.608Z,1.87
2022-09-13T07:14:48.421Z,1.67
2022-09-13T07:17:34.831Z,1.77
2022-09-13T07:20:20.858Z,1.80
2022-09-13T07:23:07.540Z,2.08
2022-09-13T07:25:55.609Z,2.05
2022-09-13T07:28:43.895Z,1.50
2022-09-13T07:31:37.962Z,1.92
2022-09-13T07:34:25.825Z,1.85
2022-09-13T07:37:13.872Z,1.60
2022-09-13T07:40:00.365Z,1.70
2022-09-13T07:42:46.842Z,1.70
2022-09-13T07:45:33.820Z,1.70
2022-09-13T07:48:19.980Z,2.20
2022-09-13T07:51:13.801Z,2.10
2022-09-13T07:54:01.818Z,1.62
2022-09-13T07:56:50.307Z,2.30
2022-09-13T07:59:38.231Z,2.60
2022-09-13T08:02:24.757Z,2.28
2022-09-13T08:05:11.444Z,2.33
2022-09-13T08:07:57.418Z,2.70
2022-09-13T08:10:48.840Z,2.30
2022-09-13T08:13:35.957Z,2.97
2022-09-13T08:16:23.795Z,2.28
2022-09-13T08:19:13.389Z,2.42
2022-09-13T08:21:59.474Z,2.90
2022-09-13T08:24:45.815Z,2.83
2022-09-13T08:27:32.150Z,2.75
2022-09-13T08:30:18.070Z,3.35
2022-09-13T08:33:04.933Z,2.75
2022-09-13T08:35:52.591Z,2.72
2022-09-13T08:38:39.009Z,2.80
2022-09-13T08:41:32.428Z,2.47
2022-09-13T08:44:26.803Z,2.60
2022-09-13T08:47:19.515Z,2.42
2022-09-13T08:50:19.420Z,2.75
2022-09-13T08:53:28.505Z,2.97
2022-09-13T08:56:36.727Z,2.78
2022-09-13T08:59:35.354Z,2.15
2022-09-13T09:02:48.876Z,2.17
2022-09-13T09:05:47.847Z,2.65
2022-09-13T09:08:58.402Z,2.87
2022-09-13T09:12:07.962Z,2.53
2022-09-13T09:15:00.880Z,2.47
2022-09-13T09:38:36.202Z,2.17
2022-09-13T09:47:20.182Z,1.87
2022-09-13T09:50:19.010Z,2.12
2022-09-13T09:53:15.170Z,2.80
2022-09-13T09:56:24.660Z,2.90
2022-09-13T09:59:28.494Z,3.45
2022-09-13T10:02:18.170Z,2.83
2022-09-13T10:05:06.854Z,2.53
2022-09-13T10:08:05.277Z,2.42
2022-09-13T10:10:53.914Z,2.22
2022-09-13T10:13:57.894Z,2.40
2022-09-13T10:16:44.498Z,2.00
2022-09-13T10:19:32.397Z,2.33
2022-09-13T10:22:18.949Z,2.20
2022-09-13T10:28:18.784Z,2.15
2022-09-13T10:31:14.820Z,2.67
2022-09-13T10:34:06.055Z,2.87
2022-09-13T10:36:54.335Z,2.40
2022-09-13T10:39:54.192Z,2.45
2022-09-13T10:42:40.894Z,3.08
2022-09-13T10:45:29.966Z,2.10
2022-09-13T10:59:52.755Z,2.30
2022-09-13T11:14:27.304Z,3.10
2022-09-13T11:17:23.738Z,2.53
2022-09-13T11:20:18.441Z,1.90
2022-09-13T11:23:10.623Z,1.75
2022-09-13T11:40:58.546Z,3.55
2022-09-13T12:07:31.077Z,1.48
2022-09-13T12:10:30.666Z,1.62
2022-09-13T12:13:22.090Z,1.58
2022-09-13T12:16:11.623Z,1.70
2022-09-13T12:19:00.170Z,2.07
2022-09-13T12:27:39.943Z,1.42
2022-09-13T12:30:36.997Z,2.03
2022-09-13T12:33:23.783Z,2.17
2022-09-13T12:36:45.935Z,2.05
2022-09-13T12:40:11.702Z,2.30
2022-09-13T13:03:14.525Z,1.23
2022-09-13T13:09:29.015Z,1.55
2022-09-13T13:12:36.798Z,1.90
2022-09-13T13:15:25.852Z,1.90
2022-09-13T13:18:28.910Z,1.90
2022-09-13T13:21:36.022Z,1.80
2022-09-13T13:24:21.998Z,1.90
2022-09-13T13:36:27.776Z,1.60
2022-09-13T13:48:07.332Z,1.15
2022-09-13T13:51:15.629Z,1.58
2022-09-13T13:54:05.865Z,1.80
2022-09-13T13:56:52.279Z,1.40
2022-09-13T13:59:39.072Z,1.48
2022-09-13T14:02:39.764Z,1.30
2022-09-13T14:05:47.087Z,1.58
2022-09-13T14:08:42.375Z,1.50
2022-09-13T14:12:07.993Z,1.27
2022-09-13T14:15:35.889Z,1.50
2022-09-13T14:18:55.442Z,1.20
2022-09-13T14:21:41.255Z,1.40
2022-09-13T14:24:28.033Z,1.45
2022-09-13T14:27:22.617Z,1.62
2022-09-13T14:30:20.128Z,1.65
2022-09-13T14:36:01.526Z,1.80
2022-09-13T14:38:55.451Z,1.40
2022-09-13T14:41:41.837Z,1.40
2022-09-13T14:44:29.259Z,1.33
2022-09-13T14:47:23.135Z,1.67
2022-09-13T14:50:29.706Z,1.23
2022-09-13T14:53:19.148Z,1.50
2022-09-13T14:56:05.174Z,1.23
2022-09-13T14:58:54.390Z,1.48
2022-09-13T15:01:40.518Z,1.55
2022-09-13T15:04:28.186Z,1.50
2022-09-13T15:07:23.624Z,1.37
2022-09-13T15:10:13.127Z,1.17
2022-09-13T15:13:09.460Z,1.50
2022-09-13T15:15:55.954Z,1.17
2022-09-13T15:18:42.093Z,1.65
2022-09-13T15:21:28.713Z,1.20
2022-09-13T15:24:32.350Z,1.30
2022-09-13T15:27:25.665Z,1.23
2022-09-13T15:30:28.118Z,2.05
2022-09-13T15:33:20.288Z,1.52
2022-09-13T15:36:33.306Z,1.52
2022-09-13T15:39:21.480Z,1.50
2022-09-13T15:42:07.769Z,1.42
2022-09-13T15:44:54.101Z,1.50
2022-09-13T15:47:40.014Z,1.40
2022-09-13T15:50:30.968Z,1.80
2022-09-13T15:53:17.082Z,1.70
2022-09-13T15:56:04.232Z,1.60
2022-09-13T21:29:38.265Z,3.17
2022-09-13T23:48:24.878Z,2.92
2022-09-13T23:51:16.757Z,3.50
2022-09-13T23:56:49.422Z,3.00
2022-09-13T23:59:35.367Z,3.37
